createdAt,value
2023-01-26T00:01:44.039Z,66.43
2023-01-26T00:04:13.149Z,80.00
2023-01-26T00:06:40.322Z,77.97
2023-01-26T00:09:07.608Z,73.95
2023-01-26T00:11:34.739Z,69.65
2023-01-26T00:14:01.877Z,76.55
2023-01-26T00:16:29.311Z,80.57
2023-01-26T00:18:56.549Z,83.00
2023-01-26T00:21:24.969Z,67.03
2023-01-26T00:23:52.956Z,65.97
2023-01-26T00:26:21.598Z,79.05
2023-01-26T00:28:49.155Z,53.00
2023-01-26T00:31:20.795Z,69.95
2023-01-26T00:33:48.202Z,74.97
2023-01-26T00:36:15.576Z,59.65
2023-01-26T00:38:42.813Z,68.25
2023-01-26T00:41:30.439Z,55.80
2023-01-26T00:43:57.678Z,53.00
2023-01-26T00:46:25.005Z,55.50
2023-01-26T00:48:52.193Z,63.72
2023-01-26T00:51:19.350Z,57.42
2023-01-26T00:53:46.468Z,59.97
2023-01-26T00:56:14.824Z,61.13
2023-01-26T00:58:43.159Z,62.67
2023-01-26T01:01:10.372Z,58.72
2023-01-26T01:03:37.523Z,56.50
2023-01-26T01:06:04.702Z,45.95
2023-01-26T01:08:31.865Z,50.65
2023-01-26T01:11:05.897Z,52.78
2023-01-26T01:13:33.032Z,48.15
2023-01-26T01:16:00.226Z,60.30
2023-01-26T01:18:27.436Z,61.47
2023-01-26T01:20:54.607Z,59.47
2023-01-26T01:23:22.102Z,61.50
2023-01-26T01:25:57.393Z,55.90
2023-01-26T01:28:24.716Z,59.38
2023-01-26T01:30:51.974Z,60.47
2023-01-26T01:33:19.372Z,60.28
2023-01-26T01:35:56.845Z,49.03
2023-01-26T01:38:24.059Z,60.90
2023-01-26T01:40:51.767Z,58.35
2023-01-26T01:43:19.151Z,55.15
2023-01-26T01:45:47.089Z,45.95
2023-01-26T01:48:19.108Z,52.83
2023-01-26T01:50:46.534Z,52.15
2023-01-26T01:53:18.799Z,40.55
2023-01-26T01:55:46.567Z,53.60
2023-01-26T01:58:13.838Z,54.35
2023-01-26T02:00:41.025Z,70.18
2023-01-26T02:03:12.719Z,60.42
2023-01-26T02:05:42.808Z,60.75
2023-01-26T02:08:10.616Z,58.40
2023-01-26T02:10:40.437Z,52.20
2023-01-26T02:13:07.708Z,53.63
2023-01-26T02:15:35.051Z,52.17
2023-01-26T02:18:03.892Z,53.58
2023-01-26T02:20:40.973Z,51.83
2023-01-26T02:23:23.757Z,50.92
2023-01-26T02:25:53.600Z,56.90
2023-01-26T02:28:22.692Z,59.35
2023-01-26T02:30:50.257Z,59.67
2023-01-26T02:33:35.720Z,57.67
2023-01-26T02:36:03.498Z,52.40
2023-01-26T02:38:50.946Z,44.70
2023-01-26T02:41:38.476Z,57.70
2023-01-26T02:44:07.602Z,51.85
2023-01-26T02:46:34.924Z,60.00
2023-01-26T02:49:21.068Z,59.40
2023-01-26T02:51:48.351Z,52.95
2023-01-26T02:54:35.667Z,56.03
2023-01-26T02:57:02.975Z,56.63
2023-01-26T02:59:30.068Z,62.47
2023-01-26T03:01:58.493Z,61.45
2023-01-26T03:04:28.259Z,51.97
2023-01-26T03:06:55.582Z,47.08
2023-01-26T03:09:22.848Z,47.58
2023-01-26T03:11:50.065Z,66.15
2023-01-26T03:14:17.265Z,64.93
2023-01-26T03:16:44.832Z,63.05
2023-01-26T03:19:35.389Z,64.18
2023-01-26T03:22:21.724Z,59.40
2023-01-26T03:25:07.357Z,54.65
2023-01-26T03:27:38.345Z,61.28
2023-01-26T03:30:05.634Z,60.38
2023-01-26T03:32:32.715Z,53.22
2023-01-26T03:34:59.805Z,50.17
2023-01-26T03:37:27.052Z,56.35
2023-01-26T03:40:13.136Z,55.20
2023-01-26T03:42:59.427Z,55.20
2023-01-26T03:45:45.145Z,45.13
2023-01-26T03:48:31.908Z,52.75
2023-01-26T03:51:17.764Z,58.08
2023-01-26T03:54:03.849Z,53.25
2023-01-26T03:56:34.124Z,58.97
2023-01-26T03:59:08.382Z,45.55
2023-01-26T04:02:01.544Z,56.33
2023-01-26T04:04:47.542Z,53.53
2023-01-26T04:07:33.213Z,57.20
2023-01-26T04:10:00.617Z,45.70
2023-01-26T04:12:27.789Z,53.85
2023-01-26T04:15:13.701Z,45.00
2023-01-26T04:17:59.511Z,49.75
2023-01-26T04:20:45.367Z,48.30
2023-01-26T04:23:21.665Z,47.92
2023-01-26T04:25:49.535Z,38.33
2023-01-26T04:28:16.662Z,52.97
2023-01-26T04:30:43.905Z,42.85
2023-01-26T04:33:11.104Z,50.92
2023-01-26T04:35:38.230Z,37.25
2023-01-26T04:38:05.466Z,38.70
2023-01-26T04:40:32.567Z,49.13
2023-01-26T04:42:59.731Z,41.75
2023-01-26T04:45:26.820Z,38.53
2023-01-26T04:47:53.941Z,48.13
2023-01-26T04:50:21.232Z,46.50
2023-01-26T04:52:48.465Z,34.35
2023-01-26T04:55:15.590Z,39.67
2023-01-26T04:57:42.876Z,46.50
2023-01-26T05:00:12.222Z,52.90
2023-01-26T05:02:40.639Z,43.42
2023-01-26T05:05:08.001Z,38.75
2023-01-26T05:07:35.112Z,46.72
2023-01-26T05:10:02.448Z,37.88
2023-01-26T05:12:36.268Z,43.50
2023-01-26T05:15:03.413Z,42.75
2023-01-26T05:17:30.789Z,44.47
2023-01-26T05:19:57.885Z,44.42
2023-01-26T05:22:25.036Z,32.42
2023-01-26T05:24:52.468Z,43.45
2023-01-26T05:27:22.507Z,48.17
2023-01-26T05:29:53.473Z,45.72
2023-01-26T05:32:22.475Z,45.80
2023-01-26T05:34:49.573Z,46.63
2023-01-26T05:37:16.718Z,52.97
2023-01-26T05:39:43.851Z,52.72
2023-01-26T05:42:14.459Z,49.97
2023-01-26T05:44:41.660Z,50.13
2023-01-26T05:47:08.936Z,49.03
2023-01-26T05:49:38.781Z,52.50
2023-01-26T05:52:09.964Z,49.25
2023-01-26T05:54:37.229Z,52.75
2023-01-26T05:57:04.609Z,53.13
2023-01-26T05:59:32.085Z,51.22
2023-01-26T06:01:59.285Z,50.65
2023-01-26T06:04:26.459Z,54.72
2023-01-26T06:06:54.250Z,55.83
2023-01-26T06:09:21.397Z,63.33
2023-01-26T06:11:48.555Z,54.13
2023-01-26T06:14:15.670Z,56.55
2023-01-26T06:16:42.804Z,55.70
2023-01-26T06:19:10.562Z,51.95
2023-01-26T06:21:37.906Z,53.55
2023-01-26T06:24:05.181Z,51.78
2023-01-26T06:26:32.400Z,61.25
2023-01-26T06:28:59.542Z,59.40
2023-01-26T06:31:29.525Z,52.22
2023-01-26T06:33:57.398Z,52.67
2023-01-26T06:36:24.629Z,54.90
2023-01-26T06:38:54.963Z,50.83
2023-01-26T06:41:23.389Z,51.38
2023-01-26T06:43:50.615Z,54.70
2023-01-26T06:46:18.348Z,51.67
2023-01-26T06:48:45.625Z,55.55
2023-01-26T06:51:19.379Z,57.70
2023-01-26T06:53:53.761Z,54.30
2023-01-26T06:56:21.135Z,54.53
2023-01-26T06:58:48.241Z,47.38
2023-01-26T07:01:23.101Z,56.33
2023-01-26T07:03:50.795Z,49.67
2023-01-26T07:06:18.284Z,53.47
2023-01-26T07:08:45.524Z,49.08
2023-01-26T07:11:13.045Z,53.80
2023-01-26T07:13:40.659Z,53.70
2023-01-26T07:16:09.041Z,55.90
2023-01-26T07:18:37.164Z,47.42
2023-01-26T07:21:05.119Z,54.10
2023-01-26T07:23:34.564Z,55.35
2023-01-26T07:26:02.280Z,55.00
2023-01-26T07:28:30.596Z,58.78
2023-01-26T07:30:58.747Z,59.05
2023-01-26T07:33:26.148Z,55.10
2023-01-26T07:35:54.080Z,61.55
2023-01-26T07:38:21.550Z,55.40
2023-01-26T07:40:48.973Z,53.67
2023-01-26T07:43:16.384Z,64.47
2023-01-26T07:45:46.665Z,60.83
2023-01-26T07:48:15.400Z,52.42
2023-01-26T07:50:42.716Z,62.75
2023-01-26T07:53:12.781Z,68.95
2023-01-26T07:55:39.863Z,66.65
2023-01-26T07:58:07.027Z,64.70
2023-01-26T08:00:34.133Z,67.25
2023-01-26T08:03:01.659Z,69.57
2023-01-26T08:05:28.781Z,75.35
2023-01-26T08:07:58.856Z,75.03
2023-01-26T08:10:26.515Z,59.88
2023-01-26T08:12:53.663Z,59.97
2023-01-26T08:15:20.951Z,65.68
2023-01-26T08:17:49.118Z,61.17
2023-01-26T08:20:16.352Z,60.38
2023-01-26T08:22:43.494Z,55.83
2023-01-26T08:25:10.744Z,70.80
2023-01-26T08:27:38.041Z,58.35
2023-01-26T08:30:05.396Z,60.17
2023-01-26T08:32:35.676Z,55.45
2023-01-26T08:35:03.189Z,55.80
2023-01-26T08:37:30.498Z,57.28
2023-01-26T08:39:57.964Z,56.70
2023-01-26T08:42:27.446Z,49.90
2023-01-26T08:44:54.612Z,48.15
2023-01-26T08:47:21.823Z,53.22
2023-01-26T08:49:49.103Z,47.40
2023-01-26T08:52:16.925Z,46.45
2023-01-26T08:54:44.059Z,44.72
2023-01-26T08:57:12.215Z,46.95
2023-01-26T08:59:39.399Z,45.40
2023-01-26T09:02:06.817Z,47.05
2023-01-26T09:04:34.318Z,47.28
2023-01-26T09:07:02.799Z,39.42
2023-01-26T09:09:29.949Z,45.13
2023-01-26T09:11:57.257Z,44.65
2023-01-26T09:14:24.432Z,42.40
2023-01-26T09:16:51.819Z,49.85
2023-01-26T09:19:18.993Z,42.03
2023-01-26T09:21:46.445Z,48.90
2023-01-26T09:24:13.618Z,44.88
2023-01-26T09:26:40.967Z,39.63
2023-01-26T09:29:08.253Z,42.65
2023-01-26T09:31:35.573Z,46.03
2023-01-26T09:34:02.821Z,45.38
2023-01-26T09:36:30.155Z,49.75
2023-01-26T09:38:57.761Z,39.17
2023-01-26T09:41:43.561Z,44.38
2023-01-26T09:44:12.836Z,40.05
2023-01-26T09:46:56.979Z,39.08
2023-01-26T09:49:35.966Z,44.33
2023-01-26T09:52:11.049Z,35.90
2023-01-26T09:54:44.078Z,34.03
2023-01-26T09:57:15.479Z,35.00
2023-01-26T09:59:55.428Z,30.67
2023-01-26T10:02:41.014Z,21.65
2023-01-26T10:05:20.361Z,28.35
2023-01-26T10:07:47.708Z,29.50
2023-01-26T10:10:20.853Z,24.63
2023-01-26T10:12:51.220Z,26.00
2023-01-26T10:15:39.133Z,29.05
2023-01-26T10:18:16.433Z,9.90
2023-01-26T10:20:44.759Z,19.52
2023-01-26T10:23:17.096Z,15.60
2023-01-26T10:25:46.192Z,21.00
2023-01-26T10:30:42.144Z,14.10
2023-01-26T10:33:16.741Z,13.30
2023-01-26T10:35:44.339Z,22.35
2023-01-26T10:38:31.453Z,15.30
2023-01-26T10:41:00.491Z,9.32
2023-01-26T10:45:54.656Z,13.68
2023-01-26T10:48:26.763Z,20.38
2023-01-26T10:50:54.536Z,11.20
2023-01-26T10:53:27.565Z,12.05
2023-01-26T10:56:07.658Z,15.95
2023-01-26T10:58:44.852Z,20.23
2023-01-26T11:01:14.632Z,11.32
2023-01-26T11:03:42.823Z,8.63
2023-01-26T11:06:16.896Z,8.88
2023-01-26T11:08:44.773Z,16.92
2023-01-26T11:11:26.463Z,11.40
2023-01-26T11:14:13.797Z,13.98
2023-01-26T11:16:42.317Z,16.30
2023-01-26T11:19:33.800Z,14.90
2023-01-26T11:22:03.335Z,15.88
2023-01-26T11:24:35.311Z,10.93
2023-01-26T11:27:14.376Z,13.88
2023-01-26T11:29:53.445Z,19.23
2023-01-26T11:32:39.199Z,20.35
2023-01-26T11:35:06.403Z,7.50
2023-01-26T11:37:52.454Z,15.25
2023-01-26T11:42:59.311Z,12.82
2023-01-26T11:45:34.333Z,8.60
2023-01-26T11:48:07.945Z,12.20
2023-01-26T11:50:38.678Z,7.70
2023-01-26T11:53:28.586Z,19.10
2023-01-26T11:56:13.993Z,27.73
2023-01-26T11:58:56.543Z,10.38
2023-01-26T12:01:28.966Z,13.13
2023-01-26T12:03:56.578Z,5.57
2023-01-26T12:06:41.121Z,6.85
2023-01-26T12:09:11.696Z,7.13
2023-01-26T12:11:41.419Z,10.63
2023-01-26T12:14:08.525Z,6.97
2023-01-26T12:16:47.896Z,13.68
2023-01-26T12:19:33.194Z,12.95
2023-01-26T12:22:03.925Z,17.38
2023-01-26T12:25:08.202Z,7.68
2023-01-26T12:27:34.554Z,10.35
2023-01-26T12:30:09.246Z,13.00
2023-01-26T12:32:36.543Z,9.57
2023-01-26T12:35:03.665Z,3.60
2023-01-26T12:37:31.063Z,11.57
2023-01-26T12:40:04.265Z,10.75
2023-01-26T12:42:34.428Z,6.85
2023-01-26T12:45:02.403Z,10.43
2023-01-26T12:47:48.031Z,7.70
2023-01-26T12:50:27.451Z,17.05
2023-01-26T12:53:13.465Z,9.02
2023-01-26T12:55:47.153Z,6.63
2023-01-26T12:58:17.024Z,5.03
2023-01-26T13:00:52.025Z,7.95
2023-01-26T13:03:25.403Z,8.77
2023-01-26T13:06:15.890Z,7.80
2023-01-26T13:08:51.521Z,9.95
2023-01-26T13:11:37.257Z,9.63
2023-01-26T13:14:24.366Z,14.35
2023-01-26T13:16:51.498Z,9.07
2023-01-26T13:19:37.148Z,11.70
2023-01-26T13:22:04.363Z,5.95
2023-01-26T13:24:31.485Z,4.40
2023-01-26T13:26:59.862Z,15.88
2023-01-26T13:29:33.370Z,8.75
2023-01-26T13:32:23.826Z,11.15
2023-01-26T13:34:55.098Z,10.50
2023-01-26T13:37:26.113Z,11.43
2023-01-26T13:39:55.292Z,8.32
2023-01-26T13:42:33.588Z,6.45
2023-01-26T13:45:07.047Z,9.30
2023-01-26T13:47:40.104Z,8.63
2023-01-26T13:50:33.673Z,9.13
2023-01-26T13:55:32.211Z,9.55
2023-01-26T13:58:12.804Z,12.00
2023-01-26T14:00:40.015Z,14.27
2023-01-26T14:03:19.014Z,10.15
2023-01-26T14:05:51.746Z,15.77
2023-01-26T14:08:18.923Z,9.20
2023-01-26T14:10:46.019Z,11.85
2023-01-26T14:13:29.158Z,14.10
2023-01-26T14:15:59.808Z,12.50
2023-01-26T14:18:27.302Z,14.32
2023-01-26T14:21:05.246Z,7.50
2023-01-26T14:23:36.369Z,5.43
2023-01-26T14:26:09.908Z,8.48
2023-01-26T14:28:41.639Z,10.63
2023-01-26T14:31:15.096Z,10.25
2023-01-26T14:33:42.391Z,5.00
2023-01-26T14:36:19.903Z,2.92
2023-01-26T14:38:48.337Z,10.32
2023-01-26T14:41:22.917Z,10.80
2023-01-26T14:43:51.504Z,5.68
2023-01-26T14:46:24.882Z,8.10
2023-01-26T14:49:06.622Z,4.07
2023-01-26T14:51:35.401Z,11.20
2023-01-26T14:54:05.415Z,15.50
2023-01-26T14:56:40.702Z,4.40
2023-01-26T14:59:09.435Z,7.80
2023-01-26T15:01:36.601Z,7.03
2023-01-26T15:04:15.733Z,10.27
2023-01-26T15:06:42.893Z,10.65
2023-01-26T15:09:36.342Z,10.52
2023-01-26T15:12:16.760Z,5.15
2023-01-26T15:14:48.407Z,3.83
2023-01-26T15:17:29.224Z,8.27
2023-01-26T15:19:56.767Z,5.05
2023-01-26T15:22:25.127Z,12.13
2023-01-26T15:25:03.304Z,10.15
2023-01-26T15:27:37.450Z,12.20
2023-01-26T15:30:05.109Z,10.48
2023-01-26T15:32:39.700Z,11.20
2023-01-26T15:35:08.856Z,6.95
2023-01-26T15:37:36.190Z,5.10
2023-01-26T15:40:04.372Z,11.95
2023-01-26T15:42:32.915Z,5.45
2023-01-26T15:45:00.226Z,15.02
2023-01-26T15:47:27.551Z,9.52
2023-01-26T15:49:54.841Z,6.70
2023-01-26T15:52:25.485Z,4.70
2023-01-26T15:54:53.885Z,6.65
2023-01-26T15:57:21.080Z,5.65
2023-01-26T15:59:48.741Z,6.82
2023-01-26T16:02:17.422Z,8.70
2023-01-26T16:04:44.737Z,10.73
2023-01-26T16:07:12.997Z,9.40
2023-01-26T16:09:40.227Z,3.90
2023-01-26T16:12:13.024Z,23.77
2023-01-26T16:14:40.292Z,8.80
2023-01-26T16:17:13.455Z,10.43
2023-01-26T16:19:40.801Z,18.98
2023-01-26T16:22:09.988Z,7.13
2023-01-26T16:24:37.424Z,9.15
2023-01-26T16:27:07.499Z,5.50
2023-01-26T16:29:35.228Z,7.88
2023-01-26T16:32:02.636Z,10.60
2023-01-26T16:34:29.869Z,5.63
2023-01-26T16:36:57.063Z,9.88
2023-01-26T16:39:24.238Z,7.18
2023-01-26T16:41:51.366Z,9.27
2023-01-26T16:44:19.586Z,7.95
2023-01-26T16:46:47.249Z,8.63
2023-01-26T16:49:18.470Z,12.00
2023-01-26T16:51:45.744Z,11.25
2023-01-26T16:54:13.001Z,13.52
2023-01-26T16:56:40.254Z,5.63
2023-01-26T16:59:07.549Z,13.65
2023-01-26T17:01:36.518Z,8.85
2023-01-26T17:04:04.348Z,11.77
2023-01-26T17:06:32.275Z,7.00
2023-01-26T17:08:59.623Z,11.85
2023-01-26T17:11:28.708Z,9.77
2023-01-26T17:16:32.027Z,5.15
2023-01-26T17:21:29.010Z,15.23
2023-01-26T17:23:57.428Z,14.80
2023-01-26T17:26:24.854Z,16.02
2023-01-26T17:28:54.480Z,13.45
2023-01-26T17:31:22.422Z,8.52
2023-01-26T17:33:50.553Z,9.38
2023-01-26T17:36:19.093Z,10.27
2023-01-26T17:38:46.201Z,9.23
2023-01-26T17:41:13.499Z,11.13
2023-01-26T17:43:40.792Z,11.27
2023-01-26T17:46:09.799Z,14.85
2023-01-26T17:51:08.417Z,13.45
2023-01-26T17:53:39.540Z,15.90
2023-01-26T17:56:08.567Z,19.05
2023-01-26T17:58:35.946Z,9.43
2023-01-26T18:01:03.511Z,16.15
2023-01-26T18:03:30.807Z,11.57
2023-01-26T18:05:58.060Z,13.82
2023-01-26T18:08:25.703Z,17.27
2023-01-26T18:10:59.417Z,26.88
2023-01-26T18:13:27.020Z,9.75
2023-01-26T18:15:54.958Z,4.13
2023-01-26T18:18:23.237Z,8.77
2023-01-26T18:20:50.454Z,16.65
2023-01-26T18:23:19.053Z,7.30
2023-01-26T18:25:46.311Z,9.02
2023-01-26T18:28:14.073Z,12.43
2023-01-26T18:30:41.322Z,5.25
2023-01-26T18:33:09.350Z,4.63
2023-01-26T18:35:36.687Z,7.38
2023-01-26T18:38:03.906Z,24.15
2023-01-26T18:40:31.237Z,9.93
2023-01-26T18:42:58.635Z,10.88
2023-01-26T18:45:25.842Z,13.20
2023-01-26T18:47:53.092Z,7.95
2023-01-26T18:50:20.422Z,9.27
2023-01-26T18:52:47.648Z,8.13
2023-01-26T18:55:15.191Z,11.90
2023-01-26T18:57:42.595Z,12.93
2023-01-26T19:00:10.083Z,23.23
2023-01-26T19:02:38.421Z,24.63
2023-01-26T19:05:06.833Z,11.63
2023-01-26T19:07:33.943Z,11.52
2023-01-26T19:10:01.122Z,11.35
2023-01-26T19:12:28.546Z,9.48
2023-01-26T19:14:55.729Z,10.57
2023-01-26T19:17:22.929Z,12.43
2023-01-26T19:19:50.883Z,8.23
2023-01-26T19:22:18.028Z,9.05
2023-01-26T19:24:45.542Z,13.63
2023-01-26T19:27:12.867Z,9.10
2023-01-26T19:29:40.058Z,14.50
2023-01-26T19:32:07.269Z,13.77
2023-01-26T19:34:37.451Z,14.13
2023-01-26T19:37:04.760Z,9.75
2023-01-26T19:39:31.929Z,11.05
2023-01-26T19:41:59.409Z,16.15
2023-01-26T19:44:26.563Z,19.67
2023-01-26T19:46:54.616Z,10.75
2023-01-26T19:49:21.989Z,13.07
2023-01-26T19:51:49.199Z,19.77
2023-01-26T19:54:16.404Z,16.83
2023-01-26T19:56:43.786Z,15.57
2023-01-26T19:59:12.750Z,7.40
2023-01-26T20:01:40.314Z,5.75
2023-01-26T20:04:09.452Z,6.20
2023-01-26T20:06:37.218Z,5.38
2023-01-26T20:09:05.117Z,7.53
2023-01-26T20:11:32.608Z,7.75
2023-01-26T20:14:01.366Z,12.57
2023-01-26T20:16:29.220Z,9.50
2023-01-26T20:18:57.481Z,12.80
2023-01-26T20:21:24.901Z,14.63
2023-01-26T20:23:55.189Z,8.88
2023-01-26T20:26:23.778Z,7.72
2023-01-26T20:28:52.284Z,9.23
2023-01-26T20:31:22.964Z,7.47
2023-01-26T20:33:51.282Z,13.60
2023-01-26T20:36:19.588Z,12.50
2023-01-26T20:38:48.107Z,5.85
2023-01-26T20:41:16.832Z,10.65
2023-01-26T20:43:58.735Z,15.10
2023-01-26T20:46:28.041Z,6.72
2023-01-26T20:48:56.208Z,9.68
2023-01-26T20:51:25.016Z,23.55
2023-01-26T20:53:52.325Z,17.67
2023-01-26T20:56:20.623Z,13.15
2023-01-26T20:58:47.751Z,18.25
2023-01-26T21:01:16.694Z,34.22
2023-01-26T21:03:44.358Z,13.32
2023-01-26T21:06:12.901Z,23.65
2023-01-26T21:08:40.217Z,25.85
2023-01-26T21:11:08.408Z,13.50
2023-01-26T21:13:36.010Z,19.75
2023-01-26T21:16:03.772Z,9.05
2023-01-26T21:18:30.944Z,16.92
2023-01-26T21:20:59.356Z,17.13
2023-01-26T21:23:26.551Z,14.32
2023-01-26T21:26:01.186Z,15.90
2023-01-26T21:28:28.644Z,11.38
2023-01-26T21:31:00.547Z,21.55
2023-01-26T21:33:28.324Z,22.05
2023-01-26T21:35:58.671Z,9.82
2023-01-26T21:38:26.284Z,15.88
2023-01-26T21:41:00.543Z,15.35
2023-01-26T21:43:28.295Z,14.48
2023-01-26T21:45:59.121Z,14.57
2023-01-26T21:48:35.782Z,14.00
2023-01-26T21:51:21.783Z,14.45
2023-01-26T21:53:48.998Z,9.93
2023-01-26T21:56:16.372Z,12.63
2023-01-26T21:59:02.782Z,10.05
2023-01-26T22:01:30.869Z,13.60
2023-01-26T22:03:58.885Z,8.60
2023-01-26T22:06:26.211Z,5.68
2023-01-26T22:08:54.077Z,7.40
2023-01-26T22:11:21.705Z,7.78
2023-01-26T22:13:48.960Z,15.05
2023-01-26T22:16:16.160Z,16.20
2023-01-26T22:18:45.565Z,15.30
2023-01-26T22:21:13.498Z,9.18
2023-01-26T22:23:41.007Z,5.45
2023-01-26T22:26:09.351Z,9.68
2023-01-26T22:28:38.517Z,7.88
2023-01-26T22:33:34.622Z,5.88
2023-01-26T22:36:04.409Z,9.05
2023-01-26T22:38:31.920Z,7.07
2023-01-26T22:40:59.340Z,11.02
2023-01-26T22:43:27.232Z,5.43
2023-01-26T22:45:54.632Z,7.57
2023-01-26T22:48:22.053Z,10.05
2023-01-26T22:50:49.229Z,8.60
2023-01-26T22:53:16.296Z,14.25
2023-01-26T22:55:43.864Z,12.05
2023-01-26T22:58:11.436Z,7.13
2023-01-26T23:00:39.348Z,4.28
2023-01-26T23:03:06.562Z,6.30
2023-01-26T23:05:34.435Z,6.55
2023-01-26T23:08:01.935Z,7.00
2023-01-26T23:10:29.551Z,15.70
2023-01-26T23:12:56.993Z,7.72
2023-01-26T23:15:24.499Z,14.95
2023-01-26T23:17:52.120Z,12.52
2023-01-26T23:20:20.100Z,14.48
2023-01-26T23:22:47.300Z,13.70
2023-01-26T23:25:33.599Z,11.02
2023-01-26T23:28:04.562Z,6.07
2023-01-26T23:30:31.776Z,9.93
2023-01-26T23:32:58.957Z,5.28
2023-01-26T23:35:26.676Z,10.13
2023-01-26T23:37:54.033Z,13.52
2023-01-26T23:40:21.133Z,10.95
2023-01-26T23:43:07.036Z,5.72
2023-01-26T23:45:35.659Z,5.93
2023-01-26T23:48:02.755Z,10.23
2023-01-26T23:50:30.134Z,11.77
2023-01-26T23:52:57.296Z,6.65
2023-01-26T23:55:24.514Z,7.50
2023-01-26T23:57:51.609Z,9.90
